Date,TemperatureHighF,TemperatureAvgF,TemperatureLowF,DewpointHighF,DewpointAvgF,DewpointLowF,HumidityHigh,HumidityAvg,HumidityLow,PressureMaxIn,PressureMinIn,WindSpeedMaxMPH,WindSpeedAvgMPH,GustSpeedMaxMPH,PrecipitationSumIn
2013-1-1,36.1,29.7,22.6,35.4,28.4,20.2,99,95,88,30.00,29.80,6,1,10,0.01
2013-1-2,39.7,27.5,21.6,25.5,18.5,13.4,92,70,44,30.02,29.93,8,1,11,0.01
2013-1-3,45.0,31.2,19.0,29.8,21.9,14.5,88,69,46,30.18,30.00,8,2,10,0.00
2013-1-4,49.8,40.2,29.1,28.5,22.3,17.0,90,52,31,30.22,30.11,9,3,11,0.00
2013-1-5,41.0,36.8,33.3,32.2,30.5,29.0,85,78,69,30.00,29.94,13,5,13,0.00
2013-1-6,48.7,35.5,25.2,30.2,21.5,12.1,90,60,25,30.11,29.99,13,5,13,0.00
2013-1-7,57.2,39.4,27.5,27.7,22.5,16.7,70,53,26,30.11,29.89,14,4,14,0.00
2013-1-8,61.7,44.5,32.2,46.7,34.3,21.2,99,69,44,29.99,29.83,13,3,13,0.24
2013-1-9,51.8,48.3,44.6,47.0,43.5,37.6,99,85,64,30.12,29.99,28,6,28,0.04
2013-1-10,53.8,47.8,43.0,52.2,46.1,38.1,99,94,67,30.00,29.62,26,9,26,0.38
2013-1-11,66.9,54.8,44.6,46.3,44.5,41.8,97,71,44,29.68,29.55,22,7,22,0.00
2013-1-12,56.5,42.5,28.2,50.2,36.3,24.1,92,80,48,29.74,29.55,19,4,19,0.25
2013-1-13,28.0,21.2,13.6,24.0,15.4,8.4,86,78,65,30.09,29.71,0,0,0,0.00
2013-1-14,35.8,21.7,12.2,14.0,8.9,4.1,79,59,31,30.20,30.05,11,1,11,0.01
2013-1-15,34.7,23.8,16.9,17.5,12.5,7.4,81,63,37,30.07,29.90,13,4,13,0.00
2013-1-16,43.9,28.1,15.1,22.8,13.6,9.5,84,57,30,29.95,29.85,14,3,14,0.00
2013-1-17,50.5,35.6,26.2,32.2,22.9,12.7,79,61,43,30.24,29.95,14,4,14,0.00
2013-1-18,59.2,41.7,26.6,29.8,24.5,18.5,85,55,24,30.26,29.98,16,5,16,0.00
2013-1-19,64.4,49.6,38.1,35.9,31.8,25.0,74,52,32,29.98,29.85,17,6,17,0.00
2013-1-20,62.1,47.1,28.8,34.6,25.9,15.1,75,45,26,30.03,29.90,16,5,16,0.00
2013-1-21,41.9,28.2,19.9,17.4,11.3,2.7,65,50,24,30.14,30.02,12,4,13,0.00
2013-1-22,48.6,33.2,20.1,24.8,18.2,10.8,71,55,36,30.08,29.99,12,6,12,0.00
2013-1-23,62.2,45.1,30.6,44.2,34.3,20.2,83,67,50,30.04,29.92,14,4,14,0.00
2013-1-24,42.1,34.6,29.3,30.4,17.9,10.0,72,50,35,30.09,29.89,17,8,17,0.00
2013-1-25,51.6,36.2,26.8,33.5,27.9,21.3,97,74,45,30.02,29.87,11,3,11,0.00
2013-1-26,62.2,45.8,32.4,28.5,22.2,14.6,76,43,19,30.04,29.91,16,5,16,0.00
2013-1-27,59.4,52.6,44.6,55.5,47.5,28.8,92,83,51,29.92,29.73,19,8,19,0.00
2013-1-28,72.9,65.3,57.9,61.2,59.6,55.3,92,82,63,29.78,29.63,22,9,22,0.00
2013-1-29,67.5,59.1,46.6,62.7,56.3,46.3,99,91,80,29.64,29.27,21,7,21,2.35
2013-1-30,46.6,31.4,19.2,46.3,26.6,14.0,99,83,66,29.82,29.30,30,12,30,0.00
2013-1-31,48.0,28.1,16.2,27.5,17.5,2.1,89,66,42,30.17,29.77,23,5,23,0.00